Enter the Airport ICAO Code

Search by Airport or City

Current Weather

KMFE | McAllen Miller International Airport

McAllen, Texas, United States

Last Update 34 Minutes Ago

Clear Sky at Low Altitude

Temperature of 26 ºC

Calm Wind

Temperature

26 ºC

Dew Point Temperature

23 ºC

Relative Humidity

83.66 %

Wind Direction

None

Wind Velocity

0 km/h (0 kt)

Gusts

None

Visibility

Reduced to 8 Miles

Sea Level Pressure

29.88 inHg (Inches of Mercury)

Layers of Clouds

None

METAR KMFE 191253Z 00000KT 8SM CLR 26/23 A2988

Weather Forecast

KMFE | McAllen Miller International Airport

McAllen, Texas, United States

Forecast valid for the next 23 Hours

From now on it is expected:

Sky with Few Clouds

Calm Wind

In 2 hours it is expected the begining of:

Partly Cloudy Sky

Light to Moderate Winds from SouthEast

In 13 hours it is expected the begining of:

Moderate Winds from SouthEast

In 18 hours it is expected the begining of:

Mostly Cloudy Sky

Light to Moderate Winds from SouthEast

Maximum Temperature

No Data

Minimum Temperature

No Data

TAF KMFE 191120Z 1912/2012 00000KT P6SM FEW023 FM191500 15005KT P6SM SCT250 FM200200 13012KT P6SM SCT250 FM200700 14007KT P6SM BKN250